Time;durP1;ratioP1;P1;durP2;ratioP2;P2;SDS_P1;SDS_P2;PMS_P1;PMS_P2;Temp;Humidity;BMP_temperature;BMP_pressure;BME280_temperature;BME280_humidity;BME280_pressure;Samples;Min_cycle;Max_cycle;Signal;HPM_P1;HPM_P2
2022/03/03 00:21:44;;;;;;;58.33;25.08;;;0.30;99.90;;;;;;5076611;28;20139;-81
2022/03/03 00:24:09;;;;;;;63.58;26.20;;;0.30;99.90;;;;;;5069037;28;20055;-81
2022/03/03 00:26:35;;;;;;;61.40;26.10;;;0.20;99.90;;;;;;5064583;28;20017;-81
2022/03/03 00:29:01;;;;;;;64.55;25.73;;;0.30;99.90;;;;;;5062304;28;20056;-81
2022/03/03 00:31:26;;;;;;;67.32;28.08;;;0.20;99.90;;;;;;5060700;28;20032;-81
2022/03/03 00:33:52;;;;;;;64.68;26.58;;;0.10;99.90;;;;;;5060011;28;20021;-81
2022/03/03 00:36:17;;;;;;;71.90;28.65;;;0.10;99.90;;;;;;5067001;28;20024;-81
2022/03/03 00:38:43;;;;;;;65.60;27.65;;;0.10;99.90;;;;;;5070205;28;20032;-82
2022/03/03 00:41:08;;;;;;;69.88;28.00;;;0.00;99.90;;;;;;5062066;28;20037;-81
2022/03/03 00:43:34;;;;;;;70.97;27.80;;;0.00;99.90;;;;;;5069609;28;20058;-81
2022/03/03 00:46:00;;;;;;;66.05;27.10;;;-0.10;99.90;;;;;;5066689;28;20102;-81
2022/03/03 00:48:25;;;;;;;78.00;28.10;;;-0.20;99.90;;;;;;5075981;28;20103;-81
2022/03/03 00:50:51;;;;;;;68.75;28.17;;;-0.30;99.90;;;;;;5077003;28;20055;-81
2022/03/03 00:53:16;;;;;;;72.53;28.02;;;-0.30;99.90;;;;;;5063342;28;20040;-81
2022/03/03 00:55:42;;;;;;;70.43;27.77;;;-0.40;99.90;;;;;;5060473;28;20021;-81
2022/03/03 00:58:09;;;;;;;71.18;28.25;;;-0.40;99.90;;;;;;5060366;28;20033;-81
2022/03/03 01:00:35;;;;;;;77.57;29.10;;;-0.40;99.90;;;;;;5068807;28;20029;-81
2022/03/03 01:03:00;;;;;;;66.75;28.25;;;-0.10;99.90;;;;;;5063191;28;20387;-81
2022/03/03 01:05:26;;;;;;;74.22;28.48;;;-0.30;99.90;;;;;;5079446;28;20020;-81
2022/03/03 01:07:52;;;;;;;67.90;28.70;;;-0.20;99.90;;;;;;5077230;28;20025;-81
2022/03/03 01:10:17;;;;;;;72.40;28.83;;;-0.20;99.90;;;;;;5063054;28;20031;-81
2022/03/03 01:12:43;;;;;;;74.63;28.70;;;0.00;99.90;;;;;;5076593;28;20112;-81
2022/03/03 01:15:10;;;;;;;74.43;29.45;;;0.10;99.90;;;;;;5063289;28;20303;-81
2022/03/03 01:17:36;;;;;;;85.95;30.92;;;-0.10;99.90;;;;;;5057770;28;20031;-81
2022/03/03 01:20:06;;;;;;;77.90;28.98;;;-0.10;99.90;;;;;;5058970;28;20025;-81
2022/03/03 01:22:32;;;;;;;;;;;-0.30;99.90;;;;;;5058751;28;20076;-82
2022/03/03 01:24:57;;;;;;;74.45;26.67;;;-0.40;99.90;;;;;;5060904;28;19905;-82
2022/03/03 01:27:24;;;;;;;68.93;27.48;;;-0.30;99.90;;;;;;5059832;28;20029;-82
2022/03/03 01:29:50;;;;;;;73.38;28.50;;;-0.50;99.90;;;;;;5058145;28;20023;-81
2022/03/03 01:32:15;;;;;;;73.82;27.10;;;-0.40;99.90;;;;;;5057371;28;20093;-81
2022/03/03 01:34:42;;;;;;;65.63;26.92;;;-0.40;99.90;;;;;;5056937;28;20021;-81
2022/03/03 01:37:08;;;;;;;68.40;26.50;;;-0.40;99.90;;;;;;5058914;28;20024;-82
2022/03/03 01:39:33;;;;;;;71.88;28.30;;;-0.30;99.90;;;;;;5058221;28;20051;-82
2022/03/03 01:42:00;;;;;;;67.60;24.45;;;-0.30;99.90;;;;;;5076311;28;20036;-82
2022/03/03 01:44:25;;;;;;;71.85;27.33;;;-0.20;99.90;;;;;;5064536;28;20500;-82
2022/03/03 01:46:56;;;;;;;68.32;25.92;;;-0.20;99.90;;;;;;5058369;28;20071;-82
2022/03/03 01:49:24;;;;;;;76.07;29.33;;;-0.30;99.90;;;;;;5060116;28;20040;-81
2022/03/03 01:51:50;;;;;;;58.13;22.80;;;-0.20;99.90;;;;;;5057237;28;20024;-81
2022/03/03 01:54:16;;;;;;;73.50;27.88;;;-0.20;99.90;;;;;;5059478;28;20020;-82
2022/03/03 01:56:45;;;;;;;68.65;27.63;;;-0.40;99.90;;;;;;5058896;28;20503;-82
2022/03/03 01:59:12;;;;;;;70.80;27.88;;;-0.40;99.90;;;;;;5054291;28;20025;-82
2022/03/03 02:01:38;;;;;;;73.65;28.83;;;-0.50;99.90;;;;;;5067759;28;20029;-82
2022/03/03 02:04:06;;;;;;;66.65;26.90;;;-0.50;99.90;;;;;;5061612;28;20059;-81
2022/03/03 02:06:32;;;;;;;67.47;26.95;;;-0.50;99.90;;;;;;5056435;28;20071;-82
2022/03/03 02:08:58;;;;;;;65.75;26.88;;;-0.50;99.90;;;;;;5056510;28;20032;-82
2022/03/03 02:11:24;;;;;;;68.20;27.00;;;-0.60;99.90;;;;;;5055730;28;20024;-82
2022/03/03 02:13:50;;;;;;;69.45;28.70;;;-0.50;99.90;;;;;;5051624;28;20029;-82
2022/03/03 02:16:15;;;;;;;77.03;28.38;;;-0.50;99.90;;;;;;5067621;28;20031;-81
2022/03/03 02:18:44;;;;;;;68.75;26.80;;;-0.70;99.90;;;;;;5070039;28;20022;-81
2022/03/03 02:21:15;;;;;;;69.32;26.33;;;-0.50;99.90;;;;;;5057094;28;20548;-81
2022/03/03 02:23:41;;;;;;;67.38;27.05;;;-0.70;99.90;;;;;;5073420;28;20047;-82
2022/03/03 02:26:18;;;;;;;70.75;28.50;;;-0.60;99.90;;;;;;5080086;28;20039;-81
2022/03/03 02:28:45;;;;;;;72.38;27.95;;;-0.60;99.90;;;;;;5077004;28;20104;-81
2022/03/03 02:31:11;;;;;;;56.17;22.58;;;-0.50;99.90;;;;;;5057686;28;20039;-81
2022/03/03 02:33:37;;;;;;;71.72;27.73;;;-0.60;99.90;;;;;;5056076;28;20017;-81
2022/03/03 02:36:22;;;;;;;74.15;30.08;;;-0.50;99.90;;;;;;5054986;28;20021;-81
2022/03/03 02:38:50;;;;;;;75.30;27.35;;;-0.60;99.90;;;;;;5062123;28;20021;-81
2022/03/03 02:41:16;;;;;;;71.90;27.50;;;-0.80;99.90;;;;;;5078406;28;20032;-81
2022/03/03 02:43:41;;;;;;;72.88;28.75;;;-0.80;99.90;;;;;;5078614;28;20028;-81
2022/03/03 02:46:08;;;;;;;72.72;26.63;;;-0.80;99.90;;;;;;5062485;28;20021;-81
2022/03/03 02:48:34;;;;;;;60.92;25.85;;;-0.80;99.90;;;;;;5059266;28;20029;-81
2022/03/03 02:51:00;;;;;;;65.38;27.45;;;-0.80;99.90;;;;;;5061043;28;20034;-81
2022/03/03 02:53:26;;;;;;;73.45;29.17;;;-0.80;99.90;;;;;;5060640;28;20431;-81
2022/03/03 02:55:52;;;;;;;74.70;28.67;;;-0.80;99.90;;;;;;5059871;28;20023;-81
2022/03/03 02:58:17;;;;;;;69.55;26.83;;;-0.80;99.90;;;;;;5060145;28;20099;-81
2022/03/03 03:00:44;;;;;;;75.55;27.80;;;-0.70;99.90;;;;;;5060455;28;20916;-81
2022/03/03 03:03:10;;;;;;;71.97;28.27;;;-0.80;99.90;;;;;;5059626;28;20079;-81
2022/03/03 03:05:37;;;;;;;73.90;28.73;;;-0.80;99.90;;;;;;5059256;28;20029;-81
2022/03/03 03:08:03;;;;;;;65.07;27.67;;;-0.80;99.90;;;;;;5057848;28;20021;-81
2022/03/03 03:10:29;;;;;;;68.32;26.95;;;-0.90;99.90;;;;;;5059266;28;20025;-81
2022/03/03 03:12:55;;;;;;;70.78;27.77;;;-0.90;99.90;;;;;;5058207;28;20083;-81
2022/03/03 03:15:21;;;;;;;72.22;29.15;;;-0.80;99.90;;;;;;5058480;28;20078;-81
2022/03/03 03:17:47;;;;;;;65.13;25.77;;;-0.80;99.90;;;;;;5071662;28;20021;-80
2022/03/03 03:20:12;;;;;;;72.18;26.67;;;-0.80;99.90;;;;;;5077618;28;20028;-80
2022/03/03 03:22:39;;;;;;;68.13;26.83;;;-0.80;99.90;;;;;;5074436;28;20570;-81
2022/03/03 03:25:07;;;;;;;59.92;23.77;;;-0.90;99.90;;;;;;5067580;28;20107;-81
2022/03/03 03:27:33;;;;;;;75.43;28.95;;;-0.80;99.90;;;;;;5041815;28;20025;-81
2022/03/03 03:29:59;;;;;;;68.63;26.88;;;-0.80;99.90;;;;;;5057974;28;20388;-81
2022/03/03 03:32:25;;;;;;;69.57;25.40;;;-1.00;99.90;;;;;;5057347;28;20071;-80
2022/03/03 03:34:51;;;;;;;69.70;26.48;;;-0.90;99.90;;;;;;5056459;28;20014;-81
2022/03/03 03:37:16;;;;;;;64.38;27.88;;;-1.00;99.90;;;;;;5057525;28;20025;-81
2022/03/03 03:39:42;;;;;;;73.72;28.55;;;-0.90;99.90;;;;;;5057718;28;20056;-81
2022/03/03 03:42:08;;;;;;;62.60;26.83;;;-1.00;99.90;;;;;;5057902;28;20064;-80
2022/03/03 03:44:35;;;;;;;70.90;25.65;;;-1.00;99.90;;;;;;5057824;28;20025;-81
2022/03/03 03:47:01;;;;;;;70.80;28.85;;;-1.00;99.90;;;;;;5058109;28;20025;-80
2022/03/03 03:49:27;;;;;;;79.78;33.03;;;-0.80;99.90;;;;;;5058310;28;20079;-80
2022/03/03 03:51:53;;;;;;;74.72;30.45;;;-0.60;99.90;;;;;;5057737;28;20029;-80
2022/03/03 03:54:19;;;;;;;88.78;33.20;;;-0.80;99.90;;;;;;5056303;28;20094;-80
2022/03/03 03:56:44;;;;;;;86.18;31.55;;;-0.50;99.90;;;;;;5076579;28;20023;-81
2022/03/03 03:59:10;;;;;;;71.60;28.80;;;-0.80;99.90;;;;;;5078459;28;20115;-81
2022/03/03 04:01:47;;;;;;;84.50;32.53;;;-0.80;99.90;;;;;;5069632;28;20029;-80
2022/03/03 04:04:12;;;;;;;76.80;30.17;;;-0.80;99.90;;;;;;5065246;28;20107;-81
2022/03/03 04:06:38;;;;;;;90.97;33.95;;;-0.80;99.90;;;;;;5078290;28;20059;-80
2022/03/03 04:09:04;;;;;;;73.10;29.27;;;-0.70;99.90;;;;;;5076874;28;20029;-81
2022/03/03 04:11:30;;;;;;;71.40;27.00;;;-1.00;99.90;;;;;;5076814;28;20028;-80
2022/03/03 04:13:56;;;;;;;69.70;28.42;;;-1.00;99.90;;;;;;5078238;28;20062;-80
2022/03/03 04:16:26;;;;;;;76.90;30.23;;;-1.20;99.90;;;;;;5078761;28;20383;-80
2022/03/03 04:18:52;;;;;;;66.32;27.77;;;-1.10;99.90;;;;;;5079079;28;20039;-80
2022/03/03 04:21:17;;;;;;;67.03;26.48;;;-1.20;99.90;;;;;;5078988;28;20029;-80
2022/03/03 04:23:43;;;;;;;65.80;25.92;;;-1.10;99.90;;;;;;5071174;28;20044;-81
2022/03/03 04:26:09;;;;;;;63.55;25.02;;;-1.00;99.90;;;;;;5061482;28;20025;-81
2022/03/03 04:28:35;;;;;;;70.43;27.42;;;-1.00;99.90;;;;;;5060094;28;20021;-81
2022/03/03 04:31:00;;;;;;;59.03;25.60;;;-1.10;99.90;;;;;;5058185;28;20377;-80
2022/03/03 04:33:26;;;;;;;56.90;22.67;;;-1.00;99.90;;;;;;5058552;28;20432;-80
2022/03/03 04:35:52;;;;;;;58.53;24.05;;;-0.90;99.90;;;;;;5059278;28;20552;-81
2022/03/03 04:38:17;;;;;;;67.55;26.10;;;-1.00;99.90;;;;;;5060465;28;20013;-81
2022/03/03 04:40:43;;;;;;;59.35;22.63;;;-1.00;99.90;;;;;;5059877;28;20020;-81
2022/03/03 04:43:08;;;;;;;64.13;28.23;;;-1.00;99.90;;;;;;5065371;28;20066;-81
2022/03/03 04:45:34;;;;;;;63.20;25.27;;;-1.00;99.90;;;;;;5072139;28;20068;-80
2022/03/03 04:48:00;;;;;;;62.17;26.20;;;-1.10;99.90;;;;;;5064098;28;20040;-81
2022/03/03 04:50:27;;;;;;;68.57;27.02;;;-1.10;99.90;;;;;;5076435;28;20021;-81
2022/03/03 04:52:53;;;;;;;53.60;22.13;;;-1.10;99.90;;;;;;5080846;28;20028;-81
2022/03/03 04:55:18;;;;;;;63.38;25.33;;;-1.10;99.90;;;;;;5082248;28;20543;-81
2022/03/03 04:57:44;;;;;;;60.88;24.83;;;-1.00;99.90;;;;;;5073369;28;20029;-81
2022/03/03 05:00:10;;;;;;;65.20;27.25;;;-0.90;99.90;;;;;;5071970;28;20021;-81
2022/03/03 05:02:36;;;;;;;60.70;23.77;;;-1.00;99.90;;;;;;5062870;28;20059;-81
2022/03/03 05:05:01;;;;;;;68.78;26.50;;;-0.90;99.90;;;;;;5070120;28;20025;-81
2022/03/03 05:07:27;;;;;;;53.13;22.48;;;-1.00;99.90;;;;;;5065015;28;20025;-81
2022/03/03 05:09:52;;;;;;;57.38;24.15;;;-0.90;99.90;;;;;;5073126;28;20057;-80
2022/03/03 05:12:18;;;;;;;69.32;27.30;;;-0.80;99.90;;;;;;5081885;28;20035;-81
2022/03/03 05:14:43;;;;;;;57.38;24.77;;;-1.00;99.90;;;;;;5081936;28;20031;-81
2022/03/03 05:17:09;;;;;;;59.13;25.67;;;-0.90;99.90;;;;;;5083849;28;20035;-81
2022/03/03 05:19:34;;;;;;;67.65;26.75;;;-0.80;99.90;;;;;;5082298;28;20032;-81
2022/03/03 05:22:00;;;;;;;65.65;26.95;;;-0.80;99.90;;;;;;5083903;28;20041;-81
2022/03/03 05:24:26;;;;;;;57.63;24.27;;;-1.00;99.90;;;;;;5075854;28;20033;-81
2022/03/03 05:26:51;;;;;;;67.45;26.25;;;-1.10;99.90;;;;;;5061378;28;20056;-80
2022/03/03 05:29:34;;;;;;;60.10;25.17;;;-1.00;99.90;;;;;;5072430;28;20104;-81
2022/03/03 05:31:59;;;;;;;61.65;25.98;;;-0.90;99.90;;;;;;5056640;28;20048;-81
2022/03/03 05:37:48;;;;;;;67.68;26.75;;;-0.90;99.90;;;;;;5058159;28;20036;-81
2022/03/03 05:40:15;;;;;;;60.45;26.52;;;-0.80;99.90;;;;;;5071297;28;20029;-81
2022/03/03 05:42:41;;;;;;;66.82;28.58;;;-0.80;99.90;;;;;;5063550;28;20037;-81
2022/03/03 05:45:07;;;;;;;64.05;28.05;;;-0.80;99.90;;;;;;5062548;28;20033;-80
2022/03/03 05:47:33;;;;;;;61.42;25.73;;;-0.90;99.90;;;;;;5071640;28;20033;-81
2022/03/03 05:50:01;;;;;;;68.25;27.90;;;-0.90;99.90;;;;;;5069564;28;20020;-81
2022/03/03 05:52:27;;;;;;;71.30;28.80;;;-0.90;99.90;;;;;;5082615;28;20027;-81
2022/03/03 05:54:53;;;;;;;58.97;25.13;;;-1.10;99.90;;;;;;5079822;28;20025;-80
2022/03/03 05:57:34;;;;;;;67.53;27.98;;;-0.90;99.90;;;;;;5080539;28;20105;-80
2022/03/03 06:00:09;;;;;;;69.53;29.65;;;-0.90;99.90;;;;;;5040995;28;20199;-81
2022/03/03 06:02:36;;;;;;;63.83;27.40;;;-1.00;86.30;;;;;;5077256;28;20039;-81
2022/03/03 06:05:06;;;;;;;61.72;27.17;;;-1.10;10.60;;;;;;5073842;28;20059;-81
2022/03/03 06:07:36;;;;;;;58.27;26.27;;;-1.00;13.80;;;;;;5085818;28;20082;-81
2022/03/03 06:10:03;;;;;;;61.20;27.05;;;-0.90;1.00;;;;;;5077083;28;20266;-81
2022/03/03 06:12:47;;;;;;;63.67;27.67;;;-1.00;1.00;;;;;;5084508;28;20025;-81
2022/03/03 06:15:13;;;;;;;60.42;26.45;;;-1.00;1.00;;;;;;5075416;28;20025;-81
2022/03/03 06:17:44;;;;;;;71.85;31.08;;;-1.00;99.90;;;;;;5061521;28;20021;-81
2022/03/03 06:20:10;;;;;;;63.60;26.60;;;-0.90;99.90;;;;;;5054810;28;20017;-81
2022/03/03 06:22:36;;;;;;;59.22;26.98;;;-0.90;99.90;;;;;;5060494;28;20032;-81
2022/03/03 06:25:02;;;;;;;63.90;28.80;;;-1.00;99.90;;;;;;5054215;28;20485;-81
2022/03/03 06:27:30;;;;;;;62.80;28.92;;;-0.90;99.90;;;;;;5056453;28;20017;-81
2022/03/03 06:29:56;;;;;;;64.38;27.33;;;-0.80;99.90;;;;;;5063383;28;20047;-81
2022/03/03 06:32:22;;;;;;;61.60;26.30;;;-0.70;99.90;;;;;;5076575;28;20442;-81
2022/03/03 06:34:47;;;;;;;56.38;26.85;;;-0.80;99.90;;;;;;5040872;28;20481;-81
2022/03/03 06:37:13;;;;;;;54.25;25.08;;;-0.80;99.90;;;;;;5061084;28;20018;-81
2022/03/03 06:39:38;;;;;;;62.20;26.08;;;-0.90;99.90;;;;;;5051561;28;20018;-81
2022/03/03 06:42:04;;;;;;;57.83;25.55;;;-0.80;99.90;;;;;;5043931;28;20117;-81
2022/03/03 06:44:30;;;;;;;57.20;25.95;;;-0.80;99.90;;;;;;5044287;28;20025;-81
2022/03/03 06:46:56;;;;;;;55.67;25.45;;;-0.80;99.90;;;;;;5044845;28;20132;-81
2022/03/03 06:49:22;;;;;;;56.50;25.65;;;-0.80;99.90;;;;;;5065196;28;20024;-81
2022/03/03 06:51:50;;;;;;;58.70;26.33;;;-0.90;99.90;;;;;;5056275;28;20013;-81
2022/03/03 06:54:20;;;;;;;60.30;27.67;;;-0.90;99.90;;;;;;5055693;28;20075;-81
2022/03/03 06:56:56;;;;;;;53.38;24.85;;;-0.80;99.90;;;;;;5051563;28;20024;-81
2022/03/03 06:59:33;;;;;;;50.05;22.58;;;-0.80;99.90;;;;;;5060456;28;20557;-81
2022/03/03 07:02:00;;;;;;;58.92;24.63;;;-0.80;99.90;;;;;;5061169;28;20072;-81
2022/03/03 07:04:28;;;;;;;51.03;24.42;;;-0.80;99.90;;;;;;5049209;28;20032;-81
2022/03/03 07:06:54;;;;;;;59.80;25.52;;;-0.80;99.90;;;;;;5067824;28;20029;-81
2022/03/03 07:09:20;;;;;;;54.25;26.23;;;-0.70;99.90;;;;;;5067139;28;20068;-81
2022/03/03 07:11:47;;;;;;;55.42;23.92;;;-0.50;99.90;;;;;;5070553;28;20124;-81
2022/03/03 07:14:13;;;;;;;60.15;26.70;;;-0.50;97.20;;;;;;5066132;28;20036;-81
2022/03/03 07:16:42;;;;;;;52.28;23.40;;;-0.30;39.70;;;;;;5080943;28;20484;-81
2022/03/03 07:19:39;;;;;;;52.65;25.80;;;-0.30;60.90;;;;;;5076851;28;20021;-81
2022/03/03 07:22:22;;;;;;;48.33;22.77;;;0.70;52.50;;;;;;5066881;28;20028;-81
2022/03/03 07:25:12;;;;;;;52.55;23.58;;;4.70;99.90;;;;;;5085652;28;20100;-82
2022/03/03 07:27:43;;;;;;;46.88;23.25;;;5.80;99.90;;;;;;5079604;28;20117;-81
2022/03/03 07:30:12;;;;;;;43.05;19.83;;;6.50;99.90;;;;;;5080234;28;20100;-82
2022/03/03 07:32:44;;;;;;;46.67;24.90;;;6.70;99.90;;;;;;5071422;28;20043;-81
2022/03/03 07:35:14;;;;;;;51.00;23.77;;;7.30;99.90;;;;;;5067352;28;20024;-82
2022/03/03 07:38:06;;;;;;;47.38;21.65;;;7.50;99.90;;;;;;5070098;28;20477;-82
2022/03/03 07:40:32;;;;;;;45.92;22.08;;;8.80;99.90;;;;;;5067775;28;20033;-82
2022/03/03 07:42:59;;;;;;;45.92;22.38;;;8.10;99.90;;;;;;5081250;28;20025;-82
2022/03/03 07:45:26;;;;;;;43.67;21.88;;;6.90;99.90;;;;;;5076294;28;20126;-82
2022/03/03 07:47:55;;;;;;;43.38;20.30;;;8.00;99.90;;;;;;5084368;28;20051;-82
2022/03/03 07:50:21;;;;;;;42.80;21.73;;;8.10;99.90;;;;;;5083860;28;20020;-82
2022/03/03 07:52:48;;;;;;;37.60;18.75;;;9.10;99.90;;;;;;5080489;28;20025;-82
2022/03/03 07:55:15;;;;;;;43.40;22.50;;;9.40;99.90;;;;;;5050573;28;20033;-82
2022/03/03 07:58:03;;;;;;;36.40;20.45;;;8.20;99.90;;;;;;5080533;28;20085;-82
2022/03/03 08:00:31;;;;;;;36.28;20.83;;;7.40;99.90;;;;;;5065469;28;20028;-82
2022/03/03 08:02:59;;;;;;;39.50;20.83;;;7.70;99.90;;;;;;5078532;28;20029;-82
2022/03/03 08:05:28;;;;;;;41.97;21.20;;;8.20;99.90;;;;;;5076431;28;20032;-83
2022/03/03 08:07:55;;;;;;;38.97;22.88;;;8.70;99.90;;;;;;5071723;28;20028;-82
2022/03/03 08:10:25;;;;;;;37.47;22.58;;;7.50;99.90;;;;;;5076165;28;20053;-82
2022/03/03 08:12:54;;;;;;;39.90;20.83;;;9.00;99.90;;;;;;5075988;28;20113;-83
2022/03/03 08:15:21;;;;;;;33.78;20.23;;;11.00;99.90;;;;;;5081255;28;20074;-83
2022/03/03 08:17:51;;;;;;;34.92;18.55;;;9.00;99.90;;;;;;5069241;28;20028;-82
2022/03/03 08:20:17;;;;;;;32.53;17.73;;;10.70;99.90;;;;;;5069197;28;20010;-82
2022/03/03 08:22:43;;;;;;;37.00;20.35;;;12.30;99.90;;;;;;5068817;28;20117;-83
2022/03/03 08:25:10;;;;;;;30.85;17.80;;;11.60;99.90;;;;;;5073504;28;20025;-83
2022/03/03 08:27:37;;;;;;;32.50;18.95;;;11.10;99.90;;;;;;5055658;28;20089;-83
2022/03/03 08:30:05;;;;;;;33.65;19.00;;;11.10;99.90;;;;;;5067591;28;20015;-83
2022/03/03 08:32:36;;;;;;;33.25;18.48;;;11.70;99.90;;;;;;5061207;28;20053;-83
2022/03/03 08:35:21;;;;;;;36.40;20.05;;;12.80;99.90;;;;;;5069488;28;20035;-83
2022/03/03 08:38:01;;;;;;;30.05;18.17;;;12.00;99.90;;;;;;5057379;28;20028;-83
2022/03/03 08:40:27;;;;;;;30.38;19.25;;;13.40;99.90;;;;;;5066923;28;20091;-83
2022/03/03 08:42:58;;;;;;;31.95;19.10;;;12.10;99.90;;;;;;5065735;28;20025;-83
2022/03/03 08:45:28;;;;;;;31.35;18.92;;;13.70;99.90;;;;;;5058745;28;20122;-83
2022/03/03 08:48:00;;;;;;;32.53;18.45;;;12.70;99.90;;;;;;5074772;28;20012;-83
2022/03/03 08:50:27;;;;;;;32.17;19.00;;;13.00;99.90;;;;;;5065144;28;20033;-83
2022/03/03 08:52:55;;;;;;;29.67;16.65;;;13.10;99.90;;;;;;5076586;28;20051;-83
2022/03/03 08:55:21;;;;;;;32.35;18.55;;;13.80;99.90;;;;;;5066635;28;20025;-83
2022/03/03 08:57:46;;;;;;;31.77;18.98;;;14.70;99.90;;;;;;5073892;28;20074;-83
2022/03/03 09:00:12;;;;;;;31.60;19.88;;;14.60;99.90;;;;;;5084770;28;20021;-83
2022/03/03 09:02:40;;;;;;;28.23;17.75;;;13.90;99.90;;;;;;5085436;28;20034;-83
2022/03/03 09:05:06;;;;;;;30.55;18.70;;;13.60;99.90;;;;;;5082309;28;20027;-83
2022/03/03 09:07:32;;;;;;;25.20;15.57;;;14.00;99.90;;;;;;5073091;28;20352;-83
2022/03/03 09:09:57;;;;;;;25.25;16.70;;;15.10;99.90;;;;;;5085069;28;20008;-83
2022/03/03 09:12:23;;;;;;;27.67;18.17;;;14.10;99.90;;;;;;5088879;28;20024;-83
2022/03/03 09:14:49;;;;;;;27.10;17.23;;;15.70;99.90;;;;;;5093381;28;20055;-83
2022/03/03 09:17:14;;;;;;;27.50;17.15;;;17.30;99.90;;;;;;5088992;28;20048;-83
2022/03/03 09:19:40;;;;;;;27.15;17.90;;;16.60;99.90;;;;;;5079864;28;20049;-83
2022/03/03 09:22:06;;;;;;;25.45;16.48;;;13.80;99.90;;;;;;5089077;28;20047;-83
2022/03/03 09:24:31;;;;;;;24.33;16.55;;;16.30;99.90;;;;;;5081684;28;20063;-83
2022/03/03 09:26:57;;;;;;;27.40;17.85;;;15.50;99.90;;;;;;5085116;28;20040;-83
2022/03/03 09:29:23;;;;;;;25.35;15.57;;;10.60;99.90;;;;;;5082534;28;20047;-83
2022/03/03 09:31:49;;;;;;;23.50;16.83;;;9.90;99.90;;;;;;5079367;28;20039;-83
2022/03/03 09:34:16;;;;;;;26.00;15.70;;;12.40;99.90;;;;;;5077020;28;20068;-83
2022/03/03 09:36:41;;;;;;;27.40;15.90;;;13.30;99.90;;;;;;5085342;28;20025;-83
2022/03/03 09:39:07;;;;;;;24.02;14.70;;;13.20;99.90;;;;;;5079600;28;20009;-83
2022/03/03 09:41:33;;;;;;;26.83;17.50;;;14.60;99.90;;;;;;5081378;28;20096;-83
2022/03/03 09:43:58;;;;;;;24.95;15.80;;;14.40;99.90;;;;;;5077697;28;20048;-83
2022/03/03 09:46:24;;;;;;;23.63;15.18;;;16.50;99.90;;;;;;5089656;28;20015;-83
2022/03/03 09:48:50;;;;;;;25.27;16.27;;;16.40;99.90;;;;;;5096800;28;20013;-83
2022/03/03 09:51:16;;;;;;;26.23;16.63;;;16.20;99.90;;;;;;5096076;28;20017;-83
2022/03/03 09:53:42;;;;;;;23.52;15.75;;;15.20;99.90;;;;;;5081805;28;20064;-83
2022/03/03 09:56:08;;;;;;;23.73;16.23;;;15.50;99.90;;;;;;5093737;28;20028;-83
2022/03/03 09:58:34;;;;;;;24.20;16.70;;;16.00;99.90;;;;;;5089689;28;20021;-83
2022/03/03 10:00:59;;;;;;;24.58;15.80;;;15.20;99.90;;;;;;5083714;28;20020;-83
2022/03/03 10:03:32;;;;;;;24.20;16.50;;;14.20;99.90;;;;;;5088490;28;20043;-83
2022/03/03 10:06:00;;;;;;;25.40;15.82;;;14.80;99.90;;;;;;5080586;28;20024;-83
2022/03/03 10:08:27;;;;;;;24.90;16.15;;;16.60;99.90;;;;;;5084101;28;20029;-84
2022/03/03 10:10:58;;;;;;;22.48;15.68;;;15.60;99.90;;;;;;5082035;28;20028;-84
2022/03/03 10:13:25;;;;;;;26.00;16.40;;;15.70;99.90;;;;;;5092723;28;20009;-84
2022/03/03 10:15:52;;;;;;;24.95;16.65;;;17.10;99.90;;;;;;5082980;28;20027;-83
2022/03/03 10:18:18;;;;;;;26.35;15.27;;;17.00;99.90;;;;;;5079807;28;20020;-84
2022/03/03 10:20:57;;;;;;;26.52;17.00;;;17.50;99.90;;;;;;5096481;28;20028;-84
2022/03/03 10:23:27;;;;;;;21.83;15.38;;;15.60;99.90;;;;;;5094856;28;20041;-84
2022/03/03 10:25:54;;;;;;;22.67;13.15;;;15.10;99.90;;;;;;5081110;28;20009;-83
2022/03/03 10:28:29;;;;;;;22.27;13.82;;;16.10;99.90;;;;;;5076138;28;20021;-84
2022/03/03 10:31:09;;;;;;;25.25;14.88;;;15.50;99.90;;;;;;5076462;28;20009;-84
2022/03/03 10:33:39;;;;;;;23.92;15.50;;;15.60;99.90;;;;;;5068552;28;20013;-84
2022/03/03 10:36:05;;;;;;;;;;;14.80;99.90;;;;;;5077177;28;20021;-84
2022/03/03 10:38:31;;;;;;;21.90;13.63;;;12.40;99.90;;;;;;5088887;28;19920;-84
2022/03/03 10:40:57;;;;;;;24.25;14.18;;;11.70;99.90;;;;;;5080260;28;20017;-84
2022/03/03 10:43:23;;;;;;;21.98;14.07;;;10.60;99.90;;;;;;5085745;28;20035;-84
2022/03/03 10:46:02;;;;;;;21.55;13.82;;;10.50;99.90;;;;;;5077934;28;20068;-83
2022/03/03 10:48:28;;;;;;;23.65;14.52;;;10.20;99.90;;;;;;5081073;28;20045;-84
2022/03/03 10:50:55;;;;;;;20.50;13.88;;;9.70;99.90;;;;;;5082618;28;20017;-84
2022/03/03 10:53:23;;;;;;;25.77;14.55;;;9.50;99.90;;;;;;5076742;28;20241;-84
2022/03/03 10:56:07;;;;;;;21.73;13.95;;;9.80;99.90;;;;;;5086803;28;20012;-84
2022/03/03 10:58:52;;;;;;;24.00;15.48;;;9.70;99.90;;;;;;5085462;28;20017;-84
2022/03/03 11:01:21;;;;;;;22.73;13.95;;;9.70;99.90;;;;;;5095546;28;20031;-83
2022/03/03 11:03:49;;;;;;;22.65;13.63;;;9.70;99.90;;;;;;5075689;28;20428;-84
2022/03/03 11:06:30;;;;;;;23.17;14.38;;;9.40;99.90;;;;;;5087495;28;20035;-84
2022/03/03 11:08:57;;;;;;;20.20;12.10;;;9.60;99.90;;;;;;5099317;28;20074;-84
2022/03/03 11:11:24;;;;;;;20.65;14.95;;;9.50;99.90;;;;;;5083097;28;20044;-84
2022/03/03 11:13:51;;;;;;;22.23;14.35;;;9.20;99.90;;;;;;5099312;28;20008;-84
2022/03/03 11:16:19;;;;;;;22.50;14.18;;;9.00;99.90;;;;;;5083996;28;20021;-84
2022/03/03 11:18:45;;;;;;;23.80;15.05;;;9.50;99.90;;;;;;5096649;28;20021;-84
2022/03/03 11:21:13;;;;;;;21.55;13.68;;;9.50;99.90;;;;;;5079061;28;20103;-84
2022/03/03 11:23:51;;;;;;;21.90;14.15;;;9.40;99.90;;;;;;5081913;28;20049;-84
2022/03/03 11:26:41;;;;;;;21.83;13.68;;;9.70;99.90;;;;;;5077298;28;20029;-84
2022/03/03 11:29:16;;;;;;;20.65;12.95;;;9.60;99.90;;;;;;5071016;28;20055;-84
2022/03/03 11:31:59;;;;;;;19.75;14.45;;;9.60;99.90;;;;;;5086390;28;20025;-84
2022/03/03 11:34:26;;;;;;;20.85;13.98;;;9.50;99.90;;;;;;5085314;28;20028;-84
2022/03/03 11:37:11;;;;;;;20.88;14.13;;;9.70;99.90;;;;;;5086091;28;20027;-84
2022/03/03 11:39:39;;;;;;;22.25;15.13;;;10.00;99.90;;;;;;5092448;28;20164;-84
2022/03/03 11:42:24;;;;;;;19.90;14.63;;;9.80;99.90;;;;;;5083560;28;20037;-84
2022/03/03 11:45:11;;;;;;;20.85;13.07;;;9.80;99.90;;;;;;5092873;28;20081;-84
2022/03/03 11:47:41;;;;;;;22.25;14.15;;;10.00;99.90;;;;;;5090396;28;20050;-84
2022/03/03 11:50:23;;;;;;;19.88;13.15;;;10.20;99.90;;;;;;5087147;28;20013;-84
2022/03/03 11:52:59;;;;;;;17.70;12.23;;;10.10;99.90;;;;;;5078166;28;20108;-84
2022/03/03 11:55:37;;;;;;;19.08;11.88;;;10.00;99.90;;;;;;5086336;28;20020;-84
2022/03/03 11:58:09;;;;;;;19.58;13.48;;;10.20;99.90;;;;;;5088107;28;20025;-84
2022/03/03 12:00:44;;;;;;;18.85;12.43;;;10.50;99.90;;;;;;5095208;28;20017;-84
2022/03/03 12:03:14;;;;;;;16.48;12.25;;;10.60;99.90;;;;;;5076675;28;20088;-84
2022/03/03 12:05:45;;;;;;;20.48;13.10;;;10.90;99.90;;;;;;5059201;28;20044;-84
2022/03/03 12:08:13;;;;;;;17.23;10.80;;;10.80;99.90;;;;;;5076156;28;20408;-84
2022/03/03 12:11:15;;;;;;;19.75;13.50;;;10.50;99.90;;;;;;5085346;28;20110;-84
2022/03/03 12:13:48;;;;;;;20.77;11.90;;;10.70;99.90;;;;;;5065278;28;20031;-84
2022/03/03 12:16:33;;;;;;;17.80;12.77;;;10.90;99.90;;;;;;5066178;28;20037;-84
2022/03/03 12:19:08;;;;;;;16.63;11.88;;;11.00;99.90;;;;;;5082736;28;20016;-84
2022/03/03 12:21:48;;;;;;;20.55;12.55;;;11.00;99.90;;;;;;5081787;28;20061;-84
2022/03/03 12:24:13;;;;;;;14.20;10.77;;;11.20;99.90;;;;;;5081883;28;20108;-84
2022/03/03 12:26:51;;;;;;;16.17;11.85;;;11.30;99.90;;;;;;5084182;28;20025;-85
2022/03/03 12:29:35;;;;;;;14.68;9.95;;;11.10;99.90;;;;;;5067633;28;20090;-84
2022/03/03 12:32:25;;;;;;;15.63;10.40;;;11.20;99.90;;;;;;5084163;28;20031;-84
2022/03/03 12:34:52;;;;;;;;;;;10.70;99.90;;;;;;5086602;28;20046;-84
2022/03/03 12:37:18;;;;;;;15.63;10.75;;;11.10;99.90;;;;;;5068464;28;19905;-85
2022/03/03 12:39:51;;;;;;;14.48;10.57;;;10.90;99.90;;;;;;5087398;28;20023;-85
2022/03/03 12:42:22;;;;;;;12.20;8.65;;;10.90;99.90;;;;;;5068695;28;20033;-84
2022/03/03 12:44:56;;;;;;;14.70;10.10;;;11.20;99.90;;;;;;5071825;28;20048;-85
2022/03/03 12:47:37;;;;;;;15.55;10.48;;;11.30;99.90;;;;;;5073336;28;20044;-85
2022/03/03 12:50:05;;;;;;;17.50;11.73;;;11.50;99.90;;;;;;5067473;28;20021;-84
2022/03/03 12:52:31;;;;;;;15.80;9.77;;;11.40;99.90;;;;;;5070931;28;20043;-84
2022/03/03 12:54:57;;;;;;;13.82;9.48;;;11.80;99.90;;;;;;5078563;28;20499;-84
2022/03/03 12:57:35;;;;;;;13.63;9.23;;;11.40;99.90;;;;;;5076418;28;20025;-84
2022/03/03 13:00:07;;;;;;;14.65;8.93;;;11.40;99.90;;;;;;5077558;28;20016;-84
2022/03/03 13:02:54;;;;;;;11.65;8.80;;;11.50;99.90;;;;;;5082576;28;20043;-84